createdAt,value
2023-03-06T00:02:09.928Z,96481.33
2023-03-06T00:04:37.832Z,96483.59
2023-03-06T00:07:05.890Z,96485.09
2023-03-06T00:09:33.910Z,96483.30
2023-03-06T00:12:01.797Z,96483.73
2023-03-06T00:14:29.656Z,96481.56
2023-03-06T00:16:57.640Z,96484.98
2023-03-06T00:19:25.677Z,96481.84
2023-03-06T00:21:54.711Z,96480.96
2023-03-06T00:24:22.710Z,96482.76
2023-03-06T00:26:50.940Z,96481.65
2023-03-06T00:29:18.887Z,96479.62
2023-03-06T00:31:48.043Z,96479.61
2023-03-06T00:34:16.069Z,96478.82
2023-03-06T00:36:43.923Z,96475.58
2023-03-06T00:39:11.897Z,96476.10
2023-03-06T00:41:39.854Z,96480.73
2023-03-06T00:44:07.744Z,96479.23
2023-03-06T00:46:35.659Z,96476.38
2023-03-06T00:49:03.791Z,96477.41
2023-03-06T00:51:31.828Z,96478.70
2023-03-06T00:53:59.711Z,96480.83
2023-03-06T00:56:27.535Z,96482.54
2023-03-06T00:58:55.356Z,96485.02
2023-03-06T01:01:23.464Z,96481.77
2023-03-06T01:03:51.538Z,96477.92
2023-03-06T01:06:19.509Z,96482.24
2023-03-06T01:08:47.446Z,96480.27
2023-03-06T01:11:15.494Z,96480.37
2023-03-06T01:13:44.252Z,96482.38
2023-03-06T01:16:15.056Z,96485.41
2023-03-06T01:18:43.163Z,96486.38
2023-03-06T01:21:11.097Z,96486.98
2023-03-06T01:23:39.362Z,96490.27
2023-03-06T01:26:07.833Z,96487.59
2023-03-06T01:28:37.550Z,96488.30
2023-03-06T01:31:07.097Z,96489.59
2023-03-06T01:33:36.130Z,96489.60
2023-03-06T01:36:08.583Z,96490.10
2023-03-06T01:38:36.907Z,96488.66
2023-03-06T01:41:05.676Z,96488.48
2023-03-06T01:43:36.050Z,96482.26
2023-03-06T01:46:27.752Z,96483.99
2023-03-06T01:49:07.836Z,96488.05
2023-03-06T01:51:39.761Z,96485.40
2023-03-06T01:54:13.289Z,96487.91
2023-03-06T01:56:46.528Z,96483.80
2023-03-06T01:59:14.811Z,96484.83
2023-03-06T02:01:44.247Z,96484.50
2023-03-06T02:04:13.027Z,96487.21
2023-03-06T02:06:43.337Z,96489.92
2023-03-06T02:09:12.670Z,96491.15
2023-03-06T02:11:44.165Z,96490.05
2023-03-06T02:14:15.877Z,96492.47
2023-03-06T02:16:44.112Z,96490.98
2023-03-06T02:19:40.353Z,96492.63
2023-03-06T02:22:08.407Z,96492.56
2023-03-06T02:24:48.455Z,96492.62
2023-03-06T02:27:17.632Z,96492.20
2023-03-06T02:29:45.766Z,96492.92
2023-03-06T02:32:13.826Z,96497.91
2023-03-06T02:34:44.510Z,96496.21
2023-03-06T02:37:12.622Z,96497.00
2023-03-06T02:39:46.487Z,96497.00
2023-03-06T02:42:26.698Z,96500.11
2023-03-06T02:44:56.129Z,96498.76
2023-03-06T02:47:24.487Z,96495.02
2023-03-06T02:49:52.429Z,96495.83
2023-03-06T02:52:20.317Z,96495.54
2023-03-06T02:54:48.209Z,96493.96
2023-03-06T02:57:16.218Z,96495.14
2023-03-06T02:59:44.190Z,96493.06
2023-03-06T03:02:12.298Z,96497.40
2023-03-06T03:04:40.274Z,96500.61
2023-03-06T03:07:08.286Z,96499.95
2023-03-06T03:09:37.317Z,96502.15
2023-03-06T03:12:06.707Z,96504.67
2023-03-06T03:14:34.634Z,96501.93
2023-03-06T03:17:02.732Z,96500.12
2023-03-06T03:19:30.643Z,96496.80
2023-03-06T03:21:59.060Z,96495.09
2023-03-06T03:24:27.118Z,96492.27
2023-03-06T03:26:55.118Z,96493.19
2023-03-06T03:29:23.265Z,96498.73
2023-03-06T03:31:51.230Z,96494.98
2023-03-06T03:34:19.146Z,96493.02
2023-03-06T03:36:47.015Z,96491.84
2023-03-06T03:39:15.153Z,96492.68
2023-03-06T03:41:43.184Z,96494.39
2023-03-06T03:44:11.188Z,96496.20
2023-03-06T03:46:39.485Z,96497.67
2023-03-06T03:49:07.442Z,96492.73
2023-03-06T03:51:36.343Z,96493.23
2023-03-06T03:54:06.139Z,96494.85
2023-03-06T03:56:34.371Z,96493.89
2023-03-06T03:59:02.982Z,96496.14
2023-03-06T04:01:31.057Z,96502.66
2023-03-06T04:03:58.939Z,96502.42
2023-03-06T04:06:27.304Z,96502.84
2023-03-06T04:08:56.234Z,96505.06
2023-03-06T04:11:24.287Z,96508.91
2023-03-06T04:13:52.361Z,96513.39
2023-03-06T04:16:20.380Z,96514.08
2023-03-06T04:18:48.262Z,96510.66
2023-03-06T04:21:16.178Z,96512.30
2023-03-06T04:23:44.116Z,96517.40
2023-03-06T04:26:12.102Z,96518.57
2023-03-06T04:28:40.057Z,96518.57
2023-03-06T04:31:13.192Z,96515.86
2023-03-06T04:33:41.234Z,96513.98
2023-03-06T04:36:28.248Z,96514.02
2023-03-06T04:39:13.347Z,96515.84
2023-03-06T04:41:42.447Z,96525.52
2023-03-06T04:44:10.673Z,96522.45
2023-03-06T04:46:38.721Z,96518.80
2023-03-06T04:49:06.722Z,96515.50
2023-03-06T04:51:36.906Z,96514.25
2023-03-06T04:54:05.435Z,96516.67
2023-03-06T04:56:34.614Z,96520.28
2023-03-06T04:59:04.310Z,96515.95
2023-03-06T05:01:33.484Z,96518.18
2023-03-06T05:04:01.417Z,96518.23
2023-03-06T05:06:29.487Z,96521.98
2023-03-06T05:08:57.638Z,96525.77
2023-03-06T05:11:25.589Z,96526.17
2023-03-06T05:13:53.498Z,96529.27
2023-03-06T05:16:21.538Z,96531.23
2023-03-06T05:18:50.674Z,96531.43
2023-03-06T05:21:18.622Z,96532.89
2023-03-06T05:23:47.589Z,96536.65
2023-03-06T05:26:15.899Z,96541.89
2023-03-06T05:28:43.864Z,96548.73
2023-03-06T05:31:11.944Z,96546.20
2023-03-06T05:33:40.022Z,96549.95
2023-03-06T05:36:09.630Z,96550.70
2023-03-06T05:38:37.601Z,96547.45
2023-03-06T05:41:05.542Z,96551.45
2023-03-06T05:43:33.546Z,96554.03
2023-03-06T05:46:04.051Z,96554.34
2023-03-06T05:48:32.859Z,96554.18
2023-03-06T05:51:01.914Z,96555.05
2023-03-06T05:53:30.484Z,96556.32
2023-03-06T05:56:03.961Z,96557.57
2023-03-06T05:58:33.243Z,96561.50
2023-03-06T06:01:09.412Z,96564.58
2023-03-06T06:03:37.769Z,96567.11
2023-03-06T06:06:08.384Z,96566.26
2023-03-06T06:08:37.758Z,96567.79
2023-03-06T06:11:07.427Z,96572.98
2023-03-06T06:13:35.689Z,96567.30
2023-03-06T06:16:11.903Z,96565.48
2023-03-06T06:18:41.234Z,96562.43
2023-03-06T06:21:11.375Z,96566.02
2023-03-06T06:23:39.364Z,96563.48
2023-03-06T06:26:08.952Z,96564.23
2023-03-06T06:28:37.051Z,96569.17
2023-03-06T06:31:10.733Z,96565.23
2023-03-06T06:33:39.804Z,96563.38
2023-03-06T06:36:16.605Z,96567.77
2023-03-06T06:38:44.657Z,96568.60
2023-03-06T06:41:38.809Z,96569.11
2023-03-06T06:44:01.261Z,96573.34
2023-03-06T06:49:17.611Z,96569.74
2023-03-06T06:51:45.870Z,96572.73
2023-03-06T06:54:13.825Z,96574.96
2023-03-06T06:56:41.723Z,96578.31
2023-03-06T06:59:16.435Z,96578.29
2023-03-06T07:01:45.401Z,96576.48
2023-03-06T07:04:13.991Z,96577.26
2023-03-06T07:06:42.888Z,96578.39
2023-03-06T07:09:12.106Z,96580.21
2023-03-06T07:11:40.774Z,96583.10
2023-03-06T07:14:08.988Z,96585.14
2023-03-06T07:16:37.014Z,96584.64
2023-03-06T07:19:05.157Z,96587.45
2023-03-06T07:21:33.215Z,96587.06
2023-03-06T07:24:01.500Z,96588.77
2023-03-06T07:26:32.701Z,96588.15
2023-03-06T07:29:03.587Z,96592.13
2023-03-06T07:31:32.097Z,96592.85
2023-03-06T07:34:00.233Z,96594.85
2023-03-06T07:36:28.923Z,96591.08
2023-03-06T07:38:56.795Z,96594.35
2023-03-06T07:41:24.702Z,96596.04
2023-03-06T07:43:52.617Z,96593.48
2023-03-06T07:46:20.536Z,96587.44
2023-03-06T07:48:48.399Z,96587.84
2023-03-06T07:51:20.178Z,96592.55
2023-03-06T07:53:49.529Z,96593.28
2023-03-06T07:56:17.752Z,96589.60
2023-03-06T07:58:46.838Z,96589.77
2023-03-06T08:01:17.979Z,96593.84
2023-03-06T08:03:47.282Z,96595.34
2023-03-06T08:06:18.798Z,96596.92
2023-03-06T08:08:48.484Z,96598.45
2023-03-06T08:11:18.823Z,96599.34
2023-03-06T08:13:48.818Z,96599.30
2023-03-06T08:16:17.675Z,96600.46
2023-03-06T08:18:46.588Z,96601.39
2023-03-06T08:21:17.485Z,96600.05
2023-03-06T08:23:46.400Z,96600.67
2023-03-06T08:26:20.006Z,96597.50
2023-03-06T08:28:48.264Z,96600.67
2023-03-06T08:31:34.928Z,96604.20
2023-03-06T08:34:09.438Z,96607.30
2023-03-06T08:36:37.495Z,96604.54
2023-03-06T08:39:05.923Z,96600.14
2023-03-06T08:41:35.195Z,96605.54
2023-03-06T08:44:07.306Z,96611.25
2023-03-06T08:46:36.392Z,96611.20
2023-03-06T08:49:05.042Z,96609.46
2023-03-06T08:51:33.290Z,96608.58
2023-03-06T08:54:01.233Z,96609.08
2023-03-06T08:56:31.507Z,96609.41
2023-03-06T08:59:01.932Z,96606.81
2023-03-06T09:01:32.353Z,96605.73
2023-03-06T09:04:02.988Z,96605.98
2023-03-06T09:06:33.871Z,96604.83
2023-03-06T09:09:02.032Z,96606.81
2023-03-06T09:11:30.260Z,96607.97
2023-03-06T09:13:58.318Z,96603.02
2023-03-06T09:16:26.738Z,96607.71
2023-03-06T09:18:54.910Z,96609.38
2023-03-06T09:21:23.137Z,96606.78
2023-03-06T09:23:51.915Z,96613.13
2023-03-06T09:26:19.883Z,96618.06
2023-03-06T09:28:47.831Z,96616.27
2023-03-06T09:31:20.560Z,96613.04
2023-03-06T09:33:48.685Z,96610.30
2023-03-06T09:36:19.408Z,96612.97
2023-03-06T09:38:50.024Z,96613.86
2023-03-06T09:41:31.570Z,96611.73
2023-03-06T09:44:22.584Z,96614.12
2023-03-06T09:47:03.462Z,96607.48
2023-03-06T09:49:49.416Z,96609.69
2023-03-06T09:52:28.888Z,96608.96
2023-03-06T09:55:09.021Z,96612.45
2023-03-06T09:57:42.442Z,96611.58
2023-03-06T10:00:30.711Z,96610.85
2023-03-06T10:03:18.106Z,96607.13
2023-03-06T10:06:10.387Z,96604.67
2023-03-06T10:09:03.341Z,96603.57
2023-03-06T10:11:39.717Z,96600.54
2023-03-06T10:14:18.644Z,96600.48
2023-03-06T10:16:46.879Z,96601.29
2023-03-06T10:19:18.193Z,96598.86
2023-03-06T10:22:15.801Z,96597.86
2023-03-06T10:25:08.644Z,96593.14
2023-03-06T10:27:50.362Z,96595.56
2023-03-06T10:30:48.899Z,96591.97
2023-03-06T10:33:42.183Z,96589.30
2023-03-06T10:36:18.578Z,96591.16
2023-03-06T10:38:50.295Z,96585.63
2023-03-06T10:41:25.842Z,96582.34
2023-03-06T10:43:59.831Z,96575.02
2023-03-06T10:46:37.408Z,96578.01
2023-03-06T10:49:14.184Z,96576.42
2023-03-06T10:51:56.820Z,96566.79
2023-03-06T10:54:25.272Z,96562.23
2023-03-06T10:56:53.192Z,96563.66
2023-03-06T10:59:28.455Z,96560.33
2023-03-06T11:01:58.908Z,96556.49
2023-03-06T11:04:34.575Z,96550.41
2023-03-06T11:07:15.405Z,96541.86
2023-03-06T11:09:59.849Z,96546.85
2023-03-06T11:12:38.461Z,96544.05
2023-03-06T11:15:17.911Z,96546.39
2023-03-06T11:17:55.955Z,96541.66
2023-03-06T11:20:24.185Z,96541.85
2023-03-06T11:22:59.635Z,96535.19
2023-03-06T11:25:34.120Z,96533.27
2023-03-06T11:28:16.020Z,96531.21
2023-03-06T11:30:54.605Z,96530.77
2023-03-06T11:33:31.166Z,96526.69
2023-03-06T11:36:23.588Z,96524.29
2023-03-06T11:38:54.125Z,96520.58
2023-03-06T11:41:34.141Z,96515.73
2023-03-06T11:44:14.351Z,96513.11
2023-03-06T11:47:07.802Z,96512.80
2023-03-06T11:49:43.653Z,96505.66
2023-03-06T11:52:44.495Z,96498.56
2023-03-06T11:55:17.281Z,96494.14
2023-03-06T11:58:08.446Z,96495.52
2023-03-06T12:01:05.507Z,96492.67
2023-03-06T12:04:13.880Z,96489.30
2023-03-06T12:07:27.701Z,96482.36
2023-03-06T12:10:23.657Z,96477.24
2023-03-06T12:13:11.340Z,96474.02
2023-03-06T12:15:57.791Z,96468.90
2023-03-06T12:18:42.832Z,96471.80
2023-03-06T12:21:22.993Z,96470.45
2023-03-06T12:24:05.255Z,96467.48
2023-03-06T12:27:13.114Z,96467.49
2023-03-06T12:29:57.885Z,96466.06
2023-03-06T12:32:52.374Z,96459.66
2023-03-06T12:35:20.229Z,96460.01
2023-03-06T12:38:00.106Z,96458.34
2023-03-06T12:40:46.497Z,96454.72
2023-03-06T12:43:23.569Z,96454.80
2023-03-06T12:45:57.015Z,96451.56
2023-03-06T12:48:29.574Z,96451.41
2023-03-06T12:50:57.910Z,96449.36
2023-03-06T12:53:30.315Z,96448.59
2023-03-06T12:56:01.590Z,96450.67
2023-03-06T12:58:29.609Z,96444.69
2023-03-06T13:01:10.150Z,96441.42
2023-03-06T13:04:15.113Z,96434.95
2023-03-06T13:06:58.064Z,96431.56
2023-03-06T13:09:44.751Z,96426.18
2023-03-06T13:12:38.897Z,96422.79
2023-03-06T13:15:42.880Z,96415.58
2023-03-06T13:18:33.396Z,96409.34
2023-03-06T13:21:01.711Z,96407.77
2023-03-06T13:23:29.556Z,96407.48
2023-03-06T13:26:16.964Z,96406.45
2023-03-06T13:28:54.148Z,96402.67
2023-03-06T13:31:33.165Z,96409.81
2023-03-06T13:34:03.794Z,96407.08
2023-03-06T13:36:33.126Z,96406.13
2023-03-06T13:39:12.471Z,96409.94
2023-03-06T13:41:54.599Z,96406.50
2023-03-06T13:44:25.458Z,96404.85
2023-03-06T13:47:25.069Z,96402.58
2023-03-06T13:49:53.020Z,96399.80
2023-03-06T13:52:35.954Z,96396.27
2023-03-06T13:55:25.368Z,96394.34
2023-03-06T13:58:18.427Z,96388.80
2023-03-06T14:01:17.201Z,96386.06
2023-03-06T14:04:30.803Z,96384.80
2023-03-06T14:06:58.829Z,96385.23
2023-03-06T14:09:35.750Z,96386.48
2023-03-06T14:12:17.006Z,96381.21
2023-03-06T14:14:51.056Z,96384.17
2023-03-06T14:17:26.808Z,96387.84
2023-03-06T14:19:58.103Z,96381.06
2023-03-06T14:22:26.102Z,96377.95
2023-03-06T14:25:02.926Z,96375.15
2023-03-06T14:27:41.929Z,96372.02
2023-03-06T14:30:16.426Z,96371.23
2023-03-06T14:32:45.100Z,96365.05
2023-03-06T14:35:39.346Z,96362.25
2023-03-06T14:38:08.110Z,96365.75
2023-03-06T14:40:45.758Z,96367.91
2023-03-06T14:43:22.647Z,96365.56
2023-03-06T14:45:52.167Z,96363.38
2023-03-06T14:48:20.259Z,96360.73
2023-03-06T14:50:54.843Z,96357.05
2023-03-06T14:53:30.424Z,96357.79
2023-03-06T14:56:06.022Z,96353.61
2023-03-06T14:58:51.379Z,96352.81
2023-03-06T15:01:27.147Z,96356.52
2023-03-06T15:03:59.334Z,96359.73
2023-03-06T15:06:38.146Z,96359.73
2023-03-06T15:09:16.873Z,96358.95
2023-03-06T15:11:58.493Z,96354.23
2023-03-06T15:14:39.760Z,96354.40
2023-03-06T15:17:28.303Z,96353.79
2023-03-06T15:20:01.166Z,96352.46
2023-03-06T15:22:43.312Z,96353.16
2023-03-06T15:25:33.065Z,96354.90
2023-03-06T15:28:26.097Z,96355.33
2023-03-06T15:31:22.195Z,96352.14
2023-03-06T15:34:11.261Z,96346.27
2023-03-06T15:36:51.452Z,96348.14
2023-03-06T15:39:37.834Z,96346.67
2023-03-06T15:42:34.682Z,96351.10
2023-03-06T15:45:23.867Z,96355.84
2023-03-06T15:47:53.608Z,96359.45
2023-03-06T15:50:22.972Z,96361.48
2023-03-06T15:52:51.474Z,96355.17
2023-03-06T15:55:22.561Z,96354.40
2023-03-06T15:57:57.008Z,96353.00
2023-03-06T16:00:28.639Z,96353.65
2023-03-06T16:02:58.064Z,96358.35
2023-03-06T16:05:27.519Z,96356.97
2023-03-06T16:07:55.776Z,96356.84
2023-03-06T16:10:27.768Z,96356.34
2023-03-06T16:13:00.276Z,96353.83
2023-03-06T16:15:30.597Z,96353.56
2023-03-06T16:18:00.289Z,96355.02
2023-03-06T16:20:29.586Z,96355.39
2023-03-06T16:22:57.464Z,96357.13
2023-03-06T16:25:28.193Z,96354.32
2023-03-06T16:27:58.307Z,96351.50
2023-03-06T16:30:29.418Z,96354.30
2023-03-06T16:32:58.158Z,96352.41
2023-03-06T16:35:26.727Z,96349.08
2023-03-06T16:37:54.881Z,96348.48
2023-03-06T16:40:22.984Z,96348.58
2023-03-06T16:42:53.439Z,96349.17
2023-03-06T16:45:23.662Z,96344.02
2023-03-06T16:47:51.762Z,96340.27
2023-03-06T16:50:28.908Z,96338.61
2023-03-06T16:52:57.993Z,96336.18
2023-03-06T16:55:27.334Z,96339.67
2023-03-06T16:57:55.256Z,96343.96
2023-03-06T17:00:31.075Z,96345.35
2023-03-06T17:03:00.693Z,96341.31
2023-03-06T17:05:29.588Z,96339.05
2023-03-06T17:07:57.433Z,96337.77
2023-03-06T17:10:27.197Z,96339.67
2023-03-06T17:12:56.538Z,96335.27
2023-03-06T17:15:24.429Z,96334.41
2023-03-06T17:17:53.363Z,96330.20
2023-03-06T17:20:21.246Z,96335.11
2023-03-06T17:22:49.241Z,96332.14
2023-03-06T17:25:17.396Z,96334.70
2023-03-06T17:27:45.395Z,96330.22
2023-03-06T17:30:13.742Z,96324.48
2023-03-06T17:32:44.428Z,96322.14
2023-03-06T17:35:12.330Z,96323.55
2023-03-06T17:37:40.242Z,96320.45
2023-03-06T17:40:10.151Z,96317.05
2023-03-06T17:42:38.159Z,96315.48
2023-03-06T17:45:09.248Z,96312.46
2023-03-06T17:47:37.491Z,96309.04
2023-03-06T17:50:05.768Z,96306.15
2023-03-06T17:52:33.844Z,96304.34
2023-03-06T17:55:01.867Z,96305.27
2023-03-06T17:57:29.764Z,96304.76
2023-03-06T17:59:57.589Z,96306.61
2023-03-06T18:02:25.630Z,96308.23
2023-03-06T18:04:56.475Z,96306.80
2023-03-06T18:07:24.683Z,96304.92
2023-03-06T18:09:52.570Z,96300.07
2023-03-06T18:12:20.412Z,96297.06
2023-03-06T18:14:48.715Z,96298.65
2023-03-06T18:17:16.637Z,96302.02
2023-03-06T18:19:44.662Z,96301.35
2023-03-06T18:22:12.512Z,96303.80
2023-03-06T18:24:40.404Z,96299.91
2023-03-06T18:27:08.364Z,96300.85
2023-03-06T18:29:36.558Z,96299.81
2023-03-06T18:32:04.660Z,96297.66
2023-03-06T18:34:32.545Z,96298.45
2023-03-06T18:37:00.520Z,96295.39
2023-03-06T18:39:28.452Z,96293.27
2023-03-06T18:41:56.587Z,96290.80
2023-03-06T18:44:24.425Z,96286.23
2023-03-06T18:46:52.511Z,96290.16
2023-03-06T18:49:20.522Z,96288.33
2023-03-06T18:51:50.339Z,96290.98
2023-03-06T18:54:18.353Z,96286.14
2023-03-06T18:56:46.213Z,96286.71
2023-03-06T18:59:18.540Z,96282.46
2023-03-06T19:01:48.682Z,96279.80
2023-03-06T19:04:16.562Z,96280.52
2023-03-06T19:06:44.484Z,96282.04
2023-03-06T19:09:12.547Z,96275.84
2023-03-06T19:11:40.631Z,96271.67
2023-03-06T19:14:08.852Z,96267.90
2023-03-06T19:16:37.105Z,96267.91
2023-03-06T19:19:05.925Z,96263.94
2023-03-06T19:21:33.822Z,96265.73
2023-03-06T19:24:02.219Z,96266.63
2023-03-06T19:26:31.305Z,96270.63
2023-03-06T19:28:59.180Z,96267.31
2023-03-06T19:31:28.469Z,96264.48
2023-03-06T19:33:57.560Z,96264.21
2023-03-06T19:36:33.312Z,96262.77
2023-03-06T19:39:03.686Z,96259.47
2023-03-06T19:41:31.549Z,96261.77
2023-03-06T19:44:02.436Z,96259.27
2023-03-06T19:46:31.745Z,96256.90
2023-03-06T19:49:02.046Z,96253.53
2023-03-06T19:51:30.128Z,96251.88
2023-03-06T19:53:58.920Z,96248.88
2023-03-06T19:56:29.078Z,96247.95
2023-03-06T19:58:57.670Z,96243.09
2023-03-06T20:01:27.461Z,96245.29
2023-03-06T20:04:00.127Z,96244.02
2023-03-06T20:06:31.455Z,96241.84
2023-03-06T20:09:01.221Z,96237.50
2023-03-06T20:11:32.577Z,96235.57
2023-03-06T20:14:03.118Z,96232.64
2023-03-06T20:16:32.077Z,96224.67
2023-03-06T20:19:01.459Z,96219.69
2023-03-06T20:21:32.181Z,96214.12
2023-03-06T20:24:00.076Z,96211.89
2023-03-06T20:26:29.282Z,96210.98
2023-03-06T20:28:57.775Z,96207.70
2023-03-06T20:31:28.240Z,96205.15
2023-03-06T20:33:58.487Z,96201.32
2023-03-06T20:36:32.128Z,96201.33
2023-03-06T20:39:01.901Z,96201.58
2023-03-06T20:41:31.219Z,96198.14
2023-03-06T20:44:01.292Z,96190.71
2023-03-06T20:46:30.111Z,96191.90
2023-03-06T20:49:01.014Z,96190.33
2023-03-06T20:51:36.125Z,96189.13
2023-03-06T20:54:05.175Z,96187.14
2023-03-06T20:56:35.103Z,96186.39
2023-03-06T20:59:03.407Z,96189.95
2023-03-06T21:01:34.138Z,96194.59
2023-03-06T21:04:04.590Z,96190.94
2023-03-06T21:06:33.322Z,96188.05
2023-03-06T21:09:01.917Z,96190.73
2023-03-06T21:11:29.920Z,96195.47
2023-03-06T21:13:58.107Z,96193.79
2023-03-06T21:16:27.790Z,96192.55
2023-03-06T21:18:56.901Z,96189.70
2023-03-06T21:21:31.472Z,96190.25
2023-03-06T21:23:59.696Z,96188.19
2023-03-06T21:26:29.858Z,96187.67
2023-03-06T21:29:01.064Z,96190.25
2023-03-06T21:31:29.745Z,96192.17
2023-03-06T21:33:58.874Z,96192.25
2023-03-06T21:36:27.001Z,96197.48
2023-03-06T21:38:55.323Z,96195.60
2023-03-06T21:41:25.959Z,96193.06
2023-03-06T21:43:58.419Z,96186.89
2023-03-06T21:46:27.830Z,96188.27
2023-03-06T21:48:56.408Z,96184.77
2023-03-06T21:51:25.653Z,96183.06
2023-03-06T21:53:54.470Z,96181.52
2023-03-06T21:56:25.383Z,96179.72
2023-03-06T21:58:53.404Z,96175.95
2023-03-06T22:01:24.538Z,96172.13
2023-03-06T22:03:53.175Z,96164.05
2023-03-06T22:06:25.187Z,96164.91
2023-03-06T22:08:55.105Z,96166.06
2023-03-06T22:11:29.784Z,96166.98
2023-03-06T22:13:58.141Z,96169.91
2023-03-06T22:16:26.168Z,96169.80
2023-03-06T22:18:54.123Z,96165.47
2023-03-06T22:21:23.225Z,96159.58
2023-03-06T22:23:52.941Z,96155.23
2023-03-06T22:26:21.073Z,96153.80
2023-03-06T22:28:49.446Z,96152.23
2023-03-06T22:31:20.403Z,96154.99
2023-03-06T22:33:53.818Z,96155.09
2023-03-06T22:36:22.784Z,96157.05
2023-03-06T22:38:55.155Z,96161.36
2023-03-06T22:41:23.234Z,96164.98
2023-03-06T22:43:51.209Z,96168.17
2023-03-06T22:46:19.263Z,96174.76
2023-03-06T22:48:47.228Z,96177.27
2023-03-06T22:51:17.873Z,96178.11
2023-03-06T22:53:46.784Z,96181.30
2023-03-06T22:56:18.082Z,96183.44
2023-03-06T22:58:46.900Z,96184.58
2023-03-06T23:01:20.284Z,96187.71
2023-03-06T23:03:50.504Z,96185.55
2023-03-06T23:06:33.203Z,96186.34
2023-03-06T23:09:13.016Z,96188.51
2023-03-06T23:11:40.898Z,96185.02
2023-03-06T23:14:12.548Z,96182.87
2023-03-06T23:16:40.524Z,96188.81
2023-03-06T23:19:08.538Z,96192.64
2023-03-06T23:21:36.479Z,96187.25
2023-03-06T23:24:04.761Z,96184.48
2023-03-06T23:26:34.349Z,96186.13
2023-03-06T23:29:02.231Z,96188.05
2023-03-06T23:31:31.209Z,96187.52
2023-03-06T23:34:01.339Z,96189.96
2023-03-06T23:36:30.261Z,96196.79
2023-03-06T23:38:58.608Z,96202.33
2023-03-06T23:41:26.624Z,96206.61
2023-03-06T23:43:55.387Z,96208.75
2023-03-06T23:46:23.805Z,96209.88
2023-03-06T23:48:52.129Z,96212.96
2023-03-06T23:51:22.591Z,96213.29
2023-03-06T23:53:59.017Z,96212.72
2023-03-06T23:56:28.577Z,96211.41
2023-03-06T23:58:56.830Z,96210.19
